sensor_id;sensor_type;location;lat;lon;timestamp;pressure;altitude;pressure_sealevel;temperature;humidity
4415;BME280;2220;42.670;23.398;2022-12-18T00:01:03;94498.25;;;7.20;100.00
4415;BME280;2220;42.670;23.398;2022-12-18T00:03:34;94500.59;;;7.21;100.00
4415;BME280;2220;42.670;23.398;2022-12-18T00:05:59;94520.09;;;7.07;100.00
4415;BME280;2220;42.670;23.398;2022-12-18T00:08:25;94526.00;;;7.03;100.00
4415;BME280;2220;42.670;23.398;2022-12-18T00:10:50;94546.88;;;6.96;100.00
4415;BME280;2220;42.670;23.398;2022-12-18T00:13:16;94550.47;;;6.95;100.00
4415;BME280;2220;42.670;23.398;2022-12-18T00:15:41;94552.91;;;7.01;100.00
4415;BME280;2220;42.670;23.398;2022-12-18T00:18:07;94551.78;;;6.97;100.00
4415;BME280;2220;42.670;23.398;2022-12-18T00:20:39;94561.56;;;6.90;100.00
4415;BME280;2220;42.670;23.398;2022-12-18T00:23:05;94564.84;;;6.86;100.00
4415;BME280;2220;42.670;23.398;2022-12-18T00:25:33;94579.13;;;6.88;100.00
4415;BME280;2220;42.670;23.398;2022-12-18T00:28:00;94596.06;;;6.79;100.00
4415;BME280;2220;42.670;23.398;2022-12-18T00:30:25;94595.81;;;6.81;100.00
4415;BME280;2220;42.670;23.398;2022-12-18T00:32:50;94600.53;;;6.84;100.00
4415;BME280;2220;42.670;23.398;2022-12-18T00:35:16;94609.16;;;6.89;100.00
4415;BME280;2220;42.670;23.398;2022-12-18T00:37:41;94611.84;;;6.94;100.00
4415;BME280;2220;42.670;23.398;2022-12-18T00:40:07;94616.72;;;6.91;100.00
4415;BME280;2220;42.670;23.398;2022-12-18T00:42:33;94615.16;;;6.90;100.00
4415;BME280;2220;42.670;23.398;2022-12-18T00:45:17;94616.00;;;6.79;100.00
4415;BME280;2220;42.670;23.398;2022-12-18T00:47:42;94632.63;;;6.66;100.00
4415;BME280;2220;42.670;23.398;2022-12-18T00:50:08;94633.84;;;6.63;100.00
4415;BME280;2220;42.670;23.398;2022-12-18T00:52:34;94657.28;;;6.57;100.00
4415;BME280;2220;42.670;23.398;2022-12-18T00:54:59;94648.09;;;6.49;100.00
4415;BME280;2220;42.670;23.398;2022-12-18T00:57:24;94682.66;;;6.43;100.00
4415;BME280;2220;42.670;23.398;2022-12-18T00:59:50;94669.72;;;6.43;100.00
4415;BME280;2220;42.670;23.398;2022-12-18T01:02:15;94676.78;;;6.48;100.00
4415;BME280;2220;42.670;23.398;2022-12-18T01:04:41;94684.91;;;6.39;100.00
4415;BME280;2220;42.670;23.398;2022-12-18T01:07:06;94678.63;;;6.35;100.00
4415;BME280;2220;42.670;23.398;2022-12-18T01:09:32;94689.31;;;6.39;100.00
4415;BME280;2220;42.670;23.398;2022-12-18T01:11:57;94691.22;;;6.32;100.00
4415;BME280;2220;42.670;23.398;2022-12-18T01:14:22;94710.94;;;6.21;100.00
4415;BME280;2220;42.670;23.398;2022-12-18T01:16:48;94706.88;;;6.25;100.00
4415;BME280;2220;42.670;23.398;2022-12-18T01:19:13;94717.81;;;6.27;100.00
4415;BME280;2220;42.670;23.398;2022-12-18T01:21:39;94707.91;;;6.24;100.00
4415;BME280;2220;42.670;23.398;2022-12-18T01:24:04;94713.31;;;6.23;100.00
4415;BME280;2220;42.670;23.398;2022-12-18T01:26:30;94719.19;;;6.18;100.00
4415;BME280;2220;42.670;23.398;2022-12-18T01:28:56;94723.88;;;6.09;100.00
4415;BME280;2220;42.670;23.398;2022-12-18T01:31:27;94733.00;;;6.12;100.00
4415;BME280;2220;42.670;23.398;2022-12-18T01:33:54;94735.91;;;6.15;100.00
4415;BME280;2220;42.670;23.398;2022-12-18T01:36:23;94735.94;;;6.04;100.00
4415;BME280;2220;42.670;23.398;2022-12-18T01:38:50;94733.34;;;6.04;100.00
4415;BME280;2220;42.670;23.398;2022-12-18T01:41:18;94747.66;;;5.95;100.00
4415;BME280;2220;42.670;23.398;2022-12-18T01:43:53;94762.63;;;5.39;100.00
4415;BME280;2220;42.670;23.398;2022-12-18T01:46:22;94770.53;;;5.79;100.00
4415;BME280;2220;42.670;23.398;2022-12-18T01:48:49;94768.03;;;5.61;100.00
4415;BME280;2220;42.670;23.398;2022-12-18T01:51:15;94785.34;;;5.60;100.00
4415;BME280;2220;42.670;23.398;2022-12-18T01:53:42;94797.38;;;5.67;100.00
4415;BME280;2220;42.670;23.398;2022-12-18T01:56:12;94801.19;;;5.64;100.00
4415;BME280;2220;42.670;23.398;2022-12-18T01:58:58;94791.28;;;5.49;100.00
4415;BME280;2220;42.670;23.398;2022-12-18T02:01:26;94805.88;;;5.44;100.00
4415;BME280;2220;42.670;23.398;2022-12-18T02:03:52;94823.63;;;5.40;100.00
4415;BME280;2220;42.670;23.398;2022-12-18T02:06:28;94821.06;;;5.52;100.00
4415;BME280;2220;42.670;23.398;2022-12-18T02:09:04;94840.16;;;5.51;100.00
4415;BME280;2220;42.670;23.398;2022-12-18T02:24:45;94831.31;;;5.70;100.00
4415;BME280;2220;42.670;23.398;2022-12-18T02:27:18;94835.34;;;5.66;100.00
4415;BME280;2220;42.670;23.398;2022-12-18T02:29:55;94854.00;;;5.26;100.00
4415;BME280;2220;42.670;23.398;2022-12-18T02:32:31;94881.44;;;5.09;100.00
4415;BME280;2220;42.670;23.398;2022-12-18T02:34:59;94919.31;;;4.78;100.00
4415;BME280;2220;42.670;23.398;2022-12-18T02:37:27;94881.06;;;5.54;100.00
4415;BME280;2220;42.670;23.398;2022-12-18T02:39:55;94897.94;;;5.08;100.00
4415;BME280;2220;42.670;23.398;2022-12-18T02:42:22;94926.25;;;4.60;100.00
4415;BME280;2220;42.670;23.398;2022-12-18T02:44:50;94904.53;;;4.67;100.00
4415;BME280;2220;42.670;23.398;2022-12-18T02:47:18;94932.19;;;4.60;100.00
4415;BME280;2220;42.670;23.398;2022-12-18T02:57:46;94938.53;;;5.01;100.00
4415;BME280;2220;42.670;23.398;2022-12-18T03:00:16;94950.81;;;4.62;100.00
4415;BME280;2220;42.670;23.398;2022-12-18T03:05:25;94933.34;;;4.64;100.00
4415;BME280;2220;42.670;23.398;2022-12-18T03:08:02;94946.31;;;4.58;100.00
4415;BME280;2220;42.670;23.398;2022-12-18T03:10:32;94971.53;;;4.31;100.00
4415;BME280;2220;42.670;23.398;2022-12-18T03:13:05;94952.31;;;4.52;100.00
4415;BME280;2220;42.670;23.398;2022-12-18T03:15:40;94985.69;;;4.46;100.00
4415;BME280;2220;42.670;23.398;2022-12-18T03:18:18;95000.09;;;4.29;100.00
4415;BME280;2220;42.670;23.398;2022-12-18T03:20:47;94991.00;;;4.76;100.00
4415;BME280;2220;42.670;23.398;2022-12-18T03:23:18;94987.31;;;4.66;100.00
4415;BME280;2220;42.670;23.398;2022-12-18T03:25:46;95006.78;;;4.62;100.00
4415;BME280;2220;42.670;23.398;2022-12-18T03:28:15;94998.25;;;4.86;100.00
4415;BME280;2220;42.670;23.398;2022-12-18T03:30:44;94995.81;;;4.91;100.00
4415;BME280;2220;42.670;23.398;2022-12-18T03:33:16;94993.81;;;4.93;100.00
4415;BME280;2220;42.670;23.398;2022-12-18T03:35:45;95003.19;;;4.88;100.00
4415;BME280;2220;42.670;23.398;2022-12-18T03:38:10;95016.75;;;4.58;100.00
4415;BME280;2220;42.670;23.398;2022-12-18T03:43:18;95001.75;;;4.73;100.00
4415;BME280;2220;42.670;23.398;2022-12-18T03:45:54;95018.91;;;4.61;100.00
4415;BME280;2220;42.670;23.398;2022-12-18T03:49:18;95017.75;;;4.57;100.00
4415;BME280;2220;42.670;23.398;2022-12-18T03:51:48;95021.13;;;4.58;100.00
4415;BME280;2220;42.670;23.398;2022-12-18T03:54:16;95024.22;;;4.66;100.00
4415;BME280;2220;42.670;23.398;2022-12-18T03:56:46;95029.41;;;4.66;100.00
4415;BME280;2220;42.670;23.398;2022-12-18T03:59:15;95035.56;;;4.65;100.00
4415;BME280;2220;42.670;23.398;2022-12-18T04:01:46;95018.34;;;4.59;100.00
4415;BME280;2220;42.670;23.398;2022-12-18T04:04:14;95015.31;;;4.62;100.00
4415;BME280;2220;42.670;23.398;2022-12-18T04:06:43;95016.69;;;4.65;100.00
4415;BME280;2220;42.670;23.398;2022-12-18T04:09:09;95004.00;;;4.63;100.00
4415;BME280;2220;42.670;23.398;2022-12-18T04:11:34;95029.41;;;4.66;100.00
4415;BME280;2220;42.670;23.398;2022-12-18T04:14:00;95011.34;;;4.66;100.00
4415;BME280;2220;42.670;23.398;2022-12-18T04:16:26;95004.78;;;4.64;100.00
4415;BME280;2220;42.670;23.398;2022-12-18T04:18:52;95019.16;;;4.78;100.00
4415;BME280;2220;42.670;23.398;2022-12-18T04:21:18;95021.97;;;4.76;100.00
4415;BME280;2220;42.670;23.398;2022-12-18T04:23:43;95026.94;;;4.71;100.00
4415;BME280;2220;42.670;23.398;2022-12-18T04:26:08;95029.28;;;4.55;100.00
4415;BME280;2220;42.670;23.398;2022-12-18T04:28:34;95022.75;;;4.52;100.00
4415;BME280;2220;42.670;23.398;2022-12-18T04:30:59;95026.56;;;4.49;100.00
4415;BME280;2220;42.670;23.398;2022-12-18T04:33:25;95030.09;;;4.48;100.00
4415;BME280;2220;42.670;23.398;2022-12-18T04:35:50;95024.59;;;4.45;100.00
4415;BME280;2220;42.670;23.398;2022-12-18T04:38:16;95033.13;;;4.45;100.00
4415;BME280;2220;42.670;23.398;2022-12-18T04:40:41;95040.41;;;4.48;100.00
4415;BME280;2220;42.670;23.398;2022-12-18T04:43:07;95028.75;;;4.46;100.00
4415;BME280;2220;42.670;23.398;2022-12-18T04:45:33;95039.06;;;4.46;100.00
4415;BME280;2220;42.670;23.398;2022-12-18T04:47:59;95061.28;;;4.47;100.00
4415;BME280;2220;42.670;23.398;2022-12-18T04:50:25;95050.56;;;4.50;100.00
4415;BME280;2220;42.670;23.398;2022-12-18T04:52:51;95068.44;;;4.45;100.00
4415;BME280;2220;42.670;23.398;2022-12-18T04:55:16;95059.53;;;4.41;100.00
4415;BME280;2220;42.670;23.398;2022-12-18T04:57:42;95071.28;;;4.37;100.00
4415;BME280;2220;42.670;23.398;2022-12-18T05:00:08;95066.31;;;4.35;100.00
4415;BME280;2220;42.670;23.398;2022-12-18T05:02:33;95078.66;;;4.33;100.00
4415;BME280;2220;42.670;23.398;2022-12-18T05:04:59;95088.00;;;4.28;100.00
4415;BME280;2220;42.670;23.398;2022-12-18T05:07:24;95069.38;;;4.26;100.00
4415;BME280;2220;42.670;23.398;2022-12-18T05:09:50;95072.91;;;4.25;100.00
4415;BME280;2220;42.670;23.398;2022-12-18T05:12:15;95094.78;;;4.15;100.00
4415;BME280;2220;42.670;23.398;2022-12-18T05:14:41;95099.78;;;4.10;100.00
4415;BME280;2220;42.670;23.398;2022-12-18T05:17:06;95104.41;;;4.02;100.00
4415;BME280;2220;42.670;23.398;2022-12-18T05:19:32;95126.94;;;4.13;100.00
4415;BME280;2220;42.670;23.398;2022-12-18T05:21:57;95120.59;;;4.09;100.00
4415;BME280;2220;42.670;23.398;2022-12-18T05:24:23;95118.25;;;4.01;100.00
4415;BME280;2220;42.670;23.398;2022-12-18T05:26:48;95122.38;;;4.08;100.00
4415;BME280;2220;42.670;23.398;2022-12-18T05:29:14;95135.31;;;4.02;100.00
4415;BME280;2220;42.670;23.398;2022-12-18T05:31:40;95127.78;;;4.00;100.00
4415;BME280;2220;42.670;23.398;2022-12-18T05:34:05;95147.03;;;3.98;100.00
4415;BME280;2220;42.670;23.398;2022-12-18T05:36:31;95155.19;;;3.88;100.00
4415;BME280;2220;42.670;23.398;2022-12-18T05:38:57;95143.88;;;3.89;100.00
4415;BME280;2220;42.670;23.398;2022-12-18T05:41:22;95170.84;;;3.93;100.00
4415;BME280;2220;42.670;23.398;2022-12-18T05:43:47;95158.34;;;3.90;100.00
4415;BME280;2220;42.670;23.398;2022-12-18T05:46:16;95168.22;;;4.00;100.00
4415;BME280;2220;42.670;23.398;2022-12-18T05:48:43;95174.97;;;4.01;100.00
4415;BME280;2220;42.670;23.398;2022-12-18T05:51:17;95182.91;;;3.92;100.00
4415;BME280;2220;42.670;23.398;2022-12-18T05:53:43;95195.78;;;3.99;100.00
4415;BME280;2220;42.670;23.398;2022-12-18T05:56:15;95188.84;;;4.00;100.00
4415;BME280;2220;42.670;23.398;2022-12-18T05:58:41;95175.38;;;3.91;100.00
4415;BME280;2220;42.670;23.398;2022-12-18T06:01:18;95202.13;;;4.03;100.00
4415;BME280;2220;42.670;23.398;2022-12-18T06:03:44;95216.97;;;4.08;100.00
4415;BME280;2220;42.670;23.398;2022-12-18T06:06:17;95204.31;;;4.00;100.00
4415;BME280;2220;42.670;23.398;2022-12-18T06:08:43;95192.63;;;3.90;100.00
4415;BME280;2220;42.670;23.398;2022-12-18T06:11:09;95214.25;;;3.96;100.00
4415;BME280;2220;42.670;23.398;2022-12-18T06:13:35;95213.03;;;3.92;100.00
4415;BME280;2220;42.670;23.398;2022-12-18T06:16:03;95215.03;;;3.97;100.00
4415;BME280;2220;42.670;23.398;2022-12-18T06:18:29;95237.06;;;3.86;100.00
4415;BME280;2220;42.670;23.398;2022-12-18T06:20:58;95263.81;;;3.91;100.00
4415;BME280;2220;42.670;23.398;2022-12-18T06:23:24;95234.28;;;3.81;100.00
4415;BME280;2220;42.670;23.398;2022-12-18T06:25:50;95233.94;;;3.51;100.00
4415;BME280;2220;42.670;23.398;2022-12-18T06:28:16;95251.13;;;3.77;100.00
4415;BME280;2220;42.670;23.398;2022-12-18T06:30:45;95255.91;;;3.73;100.00
4415;BME280;2220;42.670;23.398;2022-12-18T06:33:15;95261.47;;;3.70;100.00
4415;BME280;2220;42.670;23.398;2022-12-18T06:35:41;95269.16;;;3.77;100.00
4415;BME280;2220;42.670;23.398;2022-12-18T06:38:09;95270.97;;;3.70;100.00
4415;BME280;2220;42.670;23.398;2022-12-18T06:40:37;95282.88;;;3.77;100.00
4415;BME280;2220;42.670;23.398;2022-12-18T06:43:02;95290.59;;;3.64;100.00
4415;BME280;2220;42.670;23.398;2022-12-18T06:45:27;95304.84;;;3.73;100.00
4415;BME280;2220;42.670;23.398;2022-12-18T06:47:53;95275.53;;;3.68;100.00
4415;BME280;2220;42.670;23.398;2022-12-18T06:50:18;95290.38;;;3.65;100.00
4415;BME280;2220;42.670;23.398;2022-12-18T06:52:44;95301.09;;;3.62;100.00
4415;BME280;2220;42.670;23.398;2022-12-18T06:55:10;95306.06;;;3.77;100.00
4415;BME280;2220;42.670;23.398;2022-12-18T06:57:36;95297.50;;;3.77;100.00
4415;BME280;2220;42.670;23.398;2022-12-18T07:00:04;95310.59;;;3.82;100.00
4415;BME280;2220;42.670;23.398;2022-12-18T07:02:30;95311.81;;;3.86;100.00
4415;BME280;2220;42.670;23.398;2022-12-18T07:04:55;95324.69;;;3.86;100.00
4415;BME280;2220;42.670;23.398;2022-12-18T07:07:21;95327.44;;;3.91;100.00
4415;BME280;2220;42.670;23.398;2022-12-18T07:09:46;95313.75;;;3.84;100.00
4415;BME280;2220;42.670;23.398;2022-12-18T07:12:11;95329.25;;;3.77;100.00
4415;BME280;2220;42.670;23.398;2022-12-18T07:14:37;95328.84;;;3.80;100.00
4415;BME280;2220;42.670;23.398;2022-12-18T07:17:11;95332.41;;;3.79;100.00
4415;BME280;2220;42.670;23.398;2022-12-18T07:19:40;95366.69;;;3.73;100.00
4415;BME280;2220;42.670;23.398;2022-12-18T07:22:05;95340.53;;;3.76;100.00
4415;BME280;2220;42.670;23.398;2022-12-18T07:24:32;95336.97;;;3.77;100.00
4415;BME280;2220;42.670;23.398;2022-12-18T07:26:58;95354.19;;;3.77;100.00
4415;BME280;2220;42.670;23.398;2022-12-18T07:29:24;95340.72;;;3.81;100.00
4415;BME280;2220;42.670;23.398;2022-12-18T07:31:49;95341.13;;;3.91;100.00
4415;BME280;2220;42.670;23.398;2022-12-18T07:34:15;95353.81;;;3.73;100.00
4415;BME280;2220;42.670;23.398;2022-12-18T07:36:40;95351.44;;;3.78;100.00
4415;BME280;2220;42.670;23.398;2022-12-18T07:39:06;95374.81;;;3.70;100.00
4415;BME280;2220;42.670;23.398;2022-12-18T07:41:35;95384.13;;;3.71;100.00
4415;BME280;2220;42.670;23.398;2022-12-18T07:44:00;95377.78;;;3.74;100.00
4415;BME280;2220;42.670;23.398;2022-12-18T07:46:25;95381.56;;;3.78;100.00
4415;BME280;2220;42.670;23.398;2022-12-18T07:48:51;95379.56;;;3.67;100.00
4415;BME280;2220;42.670;23.398;2022-12-18T07:51:17;95391.44;;;3.68;100.00
4415;BME280;2220;42.670;23.398;2022-12-18T07:53:43;95410.47;;;3.67;100.00
4415;BME280;2220;42.670;23.398;2022-12-18T07:56:11;95405.31;;;3.67;100.00
4415;BME280;2220;42.670;23.398;2022-12-18T07:58:37;95407.13;;;3.79;100.00
4415;BME280;2220;42.670;23.398;2022-12-18T08:01:07;95412.47;;;3.71;100.00
4415;BME280;2220;42.670;23.398;2022-12-18T08:03:33;95417.22;;;3.68;100.00
4415;BME280;2220;42.670;23.398;2022-12-18T08:06:03;95441.19;;;3.68;100.00
4415;BME280;2220;42.670;23.398;2022-12-18T08:08:29;95434.66;;;3.65;100.00
4415;BME280;2220;42.670;23.398;2022-12-18T08:10:55;95456.84;;;3.67;100.00
4415;BME280;2220;42.670;23.398;2022-12-18T08:13:21;95456.06;;;3.66;100.00
4415;BME280;2220;42.670;23.398;2022-12-18T08:15:55;95477.44;;;3.53;100.00
4415;BME280;2220;42.670;23.398;2022-12-18T08:18:21;95465.53;;;3.46;100.00
4415;BME280;2220;42.670;23.398;2022-12-18T08:20:46;95492.06;;;3.46;100.00
4415;BME280;2220;42.670;23.398;2022-12-18T08:23:12;95486.91;;;3.46;100.00
4415;BME280;2220;42.670;23.398;2022-12-18T08:25:37;95491.91;;;3.54;100.00
4415;BME280;2220;42.670;23.398;2022-12-18T08:28:02;95494.06;;;3.51;100.00
4415;BME280;2220;42.670;23.398;2022-12-18T08:30:28;95515.25;;;3.46;100.00
4415;BME280;2220;42.670;23.398;2022-12-18T08:32:53;95504.34;;;3.51;100.00
4415;BME280;2220;42.670;23.398;2022-12-18T08:35:19;95506.72;;;3.52;100.00
4415;BME280;2220;42.670;23.398;2022-12-18T08:38:05;95503.56;;;3.50;100.00
4415;BME280;2220;42.670;23.398;2022-12-18T08:40:30;95505.13;;;3.45;100.00
4415;BME280;2220;42.670;23.398;2022-12-18T08:42:55;95507.91;;;3.50;100.00
4415;BME280;2220;42.670;23.398;2022-12-18T08:45:39;95489.09;;;3.49;100.00
4415;BME280;2220;42.670;23.398;2022-12-18T08:48:05;95511.09;;;3.52;100.00
4415;BME280;2220;42.670;23.398;2022-12-18T08:50:30;95513.50;;;3.53;100.00
4415;BME280;2220;42.670;23.398;2022-12-18T08:52:56;95505.75;;;3.47;100.00
4415;BME280;2220;42.670;23.398;2022-12-18T08:55:21;95533.66;;;3.43;100.00
4415;BME280;2220;42.670;23.398;2022-12-18T08:57:49;95506.09;;;3.44;100.00
4415;BME280;2220;42.670;23.398;2022-12-18T09:00:15;95509.31;;;3.52;100.00
4415;BME280;2220;42.670;23.398;2022-12-18T09:02:41;95509.31;;;3.46;100.00
4415;BME280;2220;42.670;23.398;2022-12-18T09:05:12;95513.28;;;3.48;100.00
4415;BME280;2220;42.670;23.398;2022-12-18T09:07:37;95513.03;;;3.43;100.00
4415;BME280;2220;42.670;23.398;2022-12-18T09:10:03;95523.03;;;3.66;100.00
4415;BME280;2220;42.670;23.398;2022-12-18T09:12:28;95484.78;;;3.56;100.00
4415;BME280;2220;42.670;23.398;2022-12-18T09:14:54;95545.00;;;3.55;100.00
4415;BME280;2220;42.670;23.398;2022-12-18T09:17:19;95486.56;;;3.62;100.00
4415;BME280;2220;42.670;23.398;2022-12-18T09:19:45;95500.44;;;3.68;100.00
4415;BME280;2220;42.670;23.398;2022-12-18T09:22:10;95505.19;;;3.58;100.00
4415;BME280;2220;42.670;23.398;2022-12-18T09:24:36;95511.16;;;3.65;100.00
4415;BME280;2220;42.670;23.398;2022-12-18T09:27:01;95500.84;;;3.65;100.00
4415;BME280;2220;42.670;23.398;2022-12-18T09:29:27;95503.41;;;3.65;100.00
4415;BME280;2220;42.670;23.398;2022-12-18T09:31:52;95527.34;;;3.52;100.00
4415;BME280;2220;42.670;23.398;2022-12-18T09:34:21;95516.66;;;3.55;100.00
4415;BME280;2220;42.670;23.398;2022-12-18T09:36:47;95498.47;;;3.63;100.00
4415;BME280;2220;42.670;23.398;2022-12-18T09:39:12;95523.88;;;3.80;100.00
4415;BME280;2220;42.670;23.398;2022-12-18T09:41:58;95519.31;;;3.75;100.00
4415;BME280;2220;42.670;23.398;2022-12-18T09:47:30;95521.34;;;3.86;100.00
4415;BME280;2220;42.670;23.398;2022-12-18T09:50:02;95527.66;;;3.84;100.00
4415;BME280;2220;42.670;23.398;2022-12-18T09:52:37;95526.88;;;3.90;100.00
4415;BME280;2220;42.670;23.398;2022-12-18T09:58:04;95531.63;;;3.86;100.00
4415;BME280;2220;42.670;23.398;2022-12-18T10:00:34;95526.66;;;3.85;100.00
4415;BME280;2220;42.670;23.398;2022-12-18T10:03:09;95524.09;;;3.85;100.00
4415;BME280;2220;42.670;23.398;2022-12-18T10:08:59;95530.25;;;3.90;100.00
4415;BME280;2220;42.670;23.398;2022-12-18T10:27:46;95551.53;;;4.12;100.00
4415;BME280;2220;42.670;23.398;2022-12-18T10:30:14;95560.47;;;4.23;100.00
4415;BME280;2220;42.670;23.398;2022-12-18T10:32:40;95558.50;;;4.18;100.00
4415;BME280;2220;42.670;23.398;2022-12-18T10:35:19;95542.22;;;4.25;100.00
4415;BME280;2220;42.670;23.398;2022-12-18T10:38:19;95544.19;;;4.22;100.00
4415;BME280;2220;42.670;23.398;2022-12-18T10:41:03;95549.38;;;4.36;100.00
4415;BME280;2220;42.670;23.398;2022-12-18T10:43:37;95536.50;;;4.36;100.00
4415;BME280;2220;42.670;23.398;2022-12-18T10:48:40;95534.31;;;4.26;100.00
4415;BME280;2220;42.670;23.398;2022-12-18T10:51:07;95550.94;;;4.10;100.00
4415;BME280;2220;42.670;23.398;2022-12-18T10:53:35;95540.81;;;4.15;100.00
4415;BME280;2220;42.670;23.398;2022-12-18T10:56:04;95555.91;;;4.32;100.00
4415;BME280;2220;42.670;23.398;2022-12-18T10:58:33;95567.63;;;4.28;100.00
4415;BME280;2220;42.670;23.398;2022-12-18T11:01:12;95560.88;;;4.20;100.00
4415;BME280;2220;42.670;23.398;2022-12-18T11:03:58;95565.66;;;4.43;100.00
4415;BME280;2220;42.670;23.398;2022-12-18T11:06:24;95573.41;;;4.56;100.00
4415;BME280;2220;42.670;23.398;2022-12-18T11:09:03;95571.00;;;4.48;100.00
4415;BME280;2220;42.670;23.398;2022-12-18T11:11:29;95569.03;;;4.37;100.00
4415;BME280;2220;42.670;23.398;2022-12-18T11:14:03;95582.13;;;4.42;100.00
4415;BME280;2220;42.670;23.398;2022-12-18T11:16:33;95595.19;;;4.27;100.00
4415;BME280;2220;42.670;23.398;2022-12-18T11:19:19;95589.69;;;4.50;100.00
4415;BME280;2220;42.670;23.398;2022-12-18T11:21:49;95583.94;;;4.68;100.00
4415;BME280;2220;42.670;23.398;2022-12-18T11:24:23;95594.66;;;4.78;100.00
4415;BME280;2220;42.670;23.398;2022-12-18T11:26:49;95602.19;;;4.73;100.00
4415;BME280;2220;42.670;23.398;2022-12-18T11:29:23;95593.66;;;4.72;100.00
4415;BME280;2220;42.670;23.398;2022-12-18T11:32:39;95583.34;;;4.72;100.00
4415;BME280;2220;42.670;23.398;2022-12-18T11:34:51;95605.41;;;4.75;100.00
4415;BME280;2220;42.670;23.398;2022-12-18T11:37:19;95588.91;;;4.63;100.00
4415;BME280;2220;42.670;23.398;2022-12-18T11:39:59;95609.16;;;4.72;100.00
4415;BME280;2220;42.670;23.398;2022-12-18T11:42:39;95602.00;;;4.68;100.00
4415;BME280;2220;42.670;23.398;2022-12-18T11:48:01;95607.78;;;4.76;100.00
4415;BME280;2220;42.670;23.398;2022-12-18T11:53:11;95604.41;;;4.83;100.00
4415;BME280;2220;42.670;23.398;2022-12-18T12:12:33;95611.94;;;4.77;100.00
4415;BME280;2220;42.670;23.398;2022-12-18T12:23:45;95620.06;;;4.88;100.00
4415;BME280;2220;42.670;23.398;2022-12-18T12:27:01;95629.81;;;4.99;100.00
4415;BME280;2220;42.670;23.398;2022-12-18T12:31:56;95636.56;;;4.87;100.00
4415;BME280;2220;42.670;23.398;2022-12-18T12:34:41;95631.78;;;4.97;100.00
4415;BME280;2220;42.670;23.398;2022-12-18T12:39:37;95652.66;;;5.15;100.00
4415;BME280;2220;42.670;23.398;2022-12-18T12:42:18;95648.09;;;5.11;100.00
4415;BME280;2220;42.670;23.398;2022-12-18T12:45:06;95646.31;;;4.98;100.00
4415;BME280;2220;42.670;23.398;2022-12-18T12:47:41;95642.13;;;4.97;100.00
4415;BME280;2220;42.670;23.398;2022-12-18T12:50:16;95642.75;;;4.99;100.00
4415;BME280;2220;42.670;23.398;2022-12-18T12:52:51;95648.69;;;4.99;100.00
4415;BME280;2220;42.670;23.398;2022-12-18T12:55:21;95673.53;;;5.07;100.00
4415;BME280;2220;42.670;23.398;2022-12-18T13:00:41;95660.63;;;5.07;100.00
4415;BME280;2220;42.670;23.398;2022-12-18T13:08:56;95682.44;;;5.04;100.00
4415;BME280;2220;42.670;23.398;2022-12-18T13:11:47;95684.03;;;5.12;100.00
4415;BME280;2220;42.670;23.398;2022-12-18T13:14:40;95683.88;;;5.14;100.00
4415;BME280;2220;42.670;23.398;2022-12-18T13:19:49;95709.06;;;5.05;100.00
4415;BME280;2220;42.670;23.398;2022-12-18T13:22:29;95699.13;;;5.02;100.00
4415;BME280;2220;42.670;23.398;2022-12-18T13:24:56;95710.25;;;4.96;100.00
4415;BME280;2220;42.670;23.398;2022-12-18T13:38:33;95724.16;;;4.95;100.00
4415;BME280;2220;42.670;23.398;2022-12-18T13:41:22;95723.56;;;4.93;100.00
4415;BME280;2220;42.670;23.398;2022-12-18T13:43:53;95728.50;;;4.94;100.00
4415;BME280;2220;42.670;23.398;2022-12-18T13:46:28;95746.00;;;4.92;100.00
4415;BME280;2220;42.670;23.398;2022-12-18T13:49:05;95736.06;;;4.83;100.00
4415;BME280;2220;42.670;23.398;2022-12-18T13:51:33;95753.91;;;4.84;100.00
4415;BME280;2220;42.670;23.398;2022-12-18T13:54:12;95760.47;;;4.87;100.00
4415;BME280;2220;42.670;23.398;2022-12-18T13:56:45;95758.00;;;4.59;100.00
4415;BME280;2220;42.670;23.398;2022-12-18T14:01:48;95781.22;;;4.59;100.00
4415;BME280;2220;42.670;23.398;2022-12-18T14:04:35;95779.22;;;4.54;100.00
4415;BME280;2220;42.670;23.398;2022-12-18T14:07:04;95794.75;;;4.67;100.00
4415;BME280;2220;42.670;23.398;2022-12-18T14:09:34;95796.22;;;4.83;100.00
4415;BME280;2220;42.670;23.398;2022-12-18T14:12:01;95806.56;;;4.90;100.00
4415;BME280;2220;42.670;23.398;2022-12-18T14:14:48;95798.00;;;4.83;100.00
4415;BME280;2220;42.670;23.398;2022-12-18T14:17:15;95799.31;;;4.65;100.00
4415;BME280;2220;42.670;23.398;2022-12-18T14:19:45;95810.59;;;4.58;100.00
4415;BME280;2220;42.670;23.398;2022-12-18T14:22:15;95808.19;;;4.56;100.00
4415;BME280;2220;42.670;23.398;2022-12-18T14:24:41;95810.19;;;4.54;100.00
4415;BME280;2220;42.670;23.398;2022-12-18T14:27:21;95818.97;;;4.66;100.00
4415;BME280;2220;42.670;23.398;2022-12-18T14:29:47;95818.34;;;4.58;100.00
4415;BME280;2220;42.670;23.398;2022-12-18T14:32:13;95822.56;;;4.72;100.00
4415;BME280;2220;42.670;23.398;2022-12-18T14:34:39;95830.72;;;4.75;100.00
4415;BME280;2220;42.670;23.398;2022-12-18T14:37:10;95829.13;;;4.74;100.00
4415;BME280;2220;42.670;23.398;2022-12-18T14:39:35;95825.41;;;4.49;100.00
4415;BME280;2220;42.670;23.398;2022-12-18T14:42:01;95824.25;;;4.52;100.00
4415;BME280;2220;42.670;23.398;2022-12-18T14:44:26;95815.25;;;4.41;100.00
4415;BME280;2220;42.670;23.398;2022-12-18T14:46:52;95829.34;;;4.38;100.00
4415;BME280;2220;42.670;23.398;2022-12-18T14:51:59;95820.25;;;4.42;100.00
4415;BME280;2220;42.670;23.398;2022-12-18T14:54:26;95814.06;;;4.37;100.00
4415;BME280;2220;42.670;23.398;2022-12-18T14:59:36;95825.72;;;4.33;100.00
4415;BME280;2220;42.670;23.398;2022-12-18T15:02:25;95817.03;;;4.40;100.00
4415;BME280;2220;42.670;23.398;2022-12-18T15:05:02;95835.16;;;4.47;100.00
4415;BME280;2220;42.670;23.398;2022-12-18T15:07:42;95829.63;;;4.50;100.00
4415;BME280;2220;42.670;23.398;2022-12-18T15:10:20;95832.66;;;4.60;100.00
4415;BME280;2220;42.670;23.398;2022-12-18T15:13:05;95834.22;;;4.61;100.00
4415;BME280;2220;42.670;23.398;2022-12-18T15:18:05;95824.66;;;4.55;100.00
4415;BME280;2220;42.670;23.398;2022-12-18T15:23:15;95831.63;;;4.55;100.00
4415;BME280;2220;42.670;23.398;2022-12-18T15:25:41;95826.22;;;4.43;100.00
4415;BME280;2220;42.670;23.398;2022-12-18T15:28:34;95832.84;;;4.59;100.00